createdAt,value
2023-05-16T00:02:20.178Z,16.19
2023-05-16T00:04:48.724Z,16.16
2023-05-16T00:07:17.021Z,16.12
2023-05-16T00:09:45.261Z,16.11
2023-05-16T00:12:13.507Z,16.05
2023-05-16T00:14:43.209Z,16.07
2023-05-16T00:17:12.571Z,16.07
2023-05-16T00:19:42.323Z,15.99
2023-05-16T00:22:11.533Z,15.96
2023-05-16T00:24:39.909Z,15.89
2023-05-16T00:27:08.123Z,15.82
2023-05-16T00:29:36.663Z,15.75
2023-05-16T00:32:08.876Z,15.71
2023-05-16T00:34:37.582Z,15.70
2023-05-16T00:37:06.321Z,15.69
2023-05-16T00:39:34.548Z,15.66
2023-05-16T00:42:02.946Z,15.61
2023-05-16T00:44:33.031Z,15.52
2023-05-16T00:47:02.813Z,15.49
2023-05-16T00:49:32.777Z,15.48
2023-05-16T00:52:01.371Z,15.47
2023-05-16T00:54:31.371Z,15.42
2023-05-16T00:56:59.767Z,15.33
2023-05-16T00:59:28.796Z,15.31
2023-05-16T01:01:57.124Z,15.26
2023-05-16T01:04:26.694Z,15.25
2023-05-16T01:06:57.945Z,15.18
2023-05-16T01:09:26.324Z,15.12
2023-05-16T01:12:03.294Z,14.98
2023-05-16T01:14:42.777Z,14.96
2023-05-16T01:17:21.608Z,14.92
2023-05-16T01:20:06.499Z,14.82
2023-05-16T01:22:49.049Z,14.77
2023-05-16T01:25:28.435Z,14.78
2023-05-16T01:27:59.624Z,14.73
2023-05-16T01:30:27.964Z,14.67
2023-05-16T01:32:56.266Z,14.60
2023-05-16T01:35:26.583Z,14.57
2023-05-16T01:38:06.125Z,14.50
2023-05-16T01:40:42.420Z,14.49
2023-05-16T01:43:15.528Z,14.43
2023-05-16T01:45:52.352Z,14.38
2023-05-16T01:48:24.531Z,14.38
2023-05-16T01:50:56.184Z,14.33
2023-05-16T01:53:29.506Z,14.29
2023-05-16T01:55:59.608Z,14.26
2023-05-16T01:58:33.065Z,14.28
2023-05-16T02:01:03.370Z,14.25
2023-05-16T02:03:31.791Z,14.25
2023-05-16T02:06:00.130Z,14.27
2023-05-16T02:08:29.582Z,14.25
2023-05-16T02:10:57.867Z,14.25
2023-05-16T02:13:26.129Z,14.24
2023-05-16T02:15:55.822Z,14.17
2023-05-16T02:18:24.767Z,14.15
2023-05-16T02:20:53.233Z,14.18
2023-05-16T02:23:21.678Z,14.22
2023-05-16T02:25:50.533Z,14.18
2023-05-16T02:28:18.807Z,14.18
2023-05-16T02:30:47.106Z,14.19
2023-05-16T02:33:16.811Z,14.19
2023-05-16T02:35:45.097Z,14.19
2023-05-16T02:38:17.567Z,14.19
2023-05-16T02:40:46.206Z,14.15
2023-05-16T02:43:14.406Z,14.15
2023-05-16T02:45:44.178Z,14.17
2023-05-16T02:48:12.949Z,14.17
2023-05-16T02:50:43.981Z,14.17
2023-05-16T02:53:12.321Z,14.22
2023-05-16T02:55:40.894Z,14.20
2023-05-16T02:58:09.329Z,14.15
2023-05-16T03:00:37.618Z,14.11
2023-05-16T03:03:06.289Z,14.07
2023-05-16T03:05:34.788Z,14.05
2023-05-16T03:08:04.430Z,14.03
2023-05-16T03:10:35.405Z,14.04
2023-05-16T03:13:03.659Z,14.03
2023-05-16T03:15:31.975Z,14.04
2023-05-16T03:18:00.844Z,14.04
2023-05-16T03:20:29.133Z,14.00
2023-05-16T03:22:58.094Z,13.97
2023-05-16T03:25:28.150Z,13.95
2023-05-16T03:27:56.841Z,13.96
2023-05-16T03:30:26.578Z,13.93
2023-05-16T03:32:54.964Z,13.92
2023-05-16T03:35:24.753Z,13.92
2023-05-16T03:37:53.124Z,13.94
2023-05-16T03:40:21.817Z,13.93
2023-05-16T03:42:51.583Z,13.89
2023-05-16T03:45:19.984Z,13.86
2023-05-16T03:47:49.933Z,13.90
2023-05-16T03:50:18.352Z,13.89
2023-05-16T03:52:46.607Z,13.91
2023-05-16T03:55:15.446Z,13.91
2023-05-16T03:57:44.136Z,13.91
2023-05-16T04:00:14.921Z,13.93
2023-05-16T04:02:44.020Z,13.92
2023-05-16T04:05:14.084Z,13.93
2023-05-16T04:07:43.011Z,13.92
2023-05-16T04:10:12.599Z,13.94
2023-05-16T04:12:40.809Z,13.95
2023-05-16T04:15:09.865Z,13.95
2023-05-16T04:17:40.237Z,13.95
2023-05-16T04:20:09.187Z,13.94
2023-05-16T04:22:37.521Z,13.91
2023-05-16T04:25:06.320Z,13.93
2023-05-16T04:27:34.601Z,13.95
2023-05-16T04:30:03.006Z,14.00
2023-05-16T04:32:34.690Z,14.03
2023-05-16T04:35:04.574Z,14.06
2023-05-16T04:37:32.918Z,14.12
2023-05-16T04:40:01.249Z,14.18
2023-05-16T04:42:29.552Z,14.24
2023-05-16T04:44:58.716Z,14.33
2023-05-16T04:47:27.032Z,14.39
2023-05-16T04:49:55.330Z,14.41
2023-05-16T04:52:25.104Z,14.43
2023-05-16T04:54:53.475Z,14.45
2023-05-16T04:57:21.812Z,14.50
2023-05-16T04:59:50.088Z,14.51
2023-05-16T05:02:18.372Z,14.54
2023-05-16T05:04:46.807Z,14.57
2023-05-16T05:07:15.237Z,14.60
2023-05-16T05:09:44.912Z,14.70
2023-05-16T05:12:13.284Z,14.78
2023-05-16T05:14:41.551Z,14.84
2023-05-16T05:17:09.877Z,14.97
2023-05-16T05:19:38.294Z,15.03
2023-05-16T05:22:07.010Z,15.16
2023-05-16T05:24:35.311Z,15.26
2023-05-16T05:27:05.113Z,15.39
2023-05-16T05:29:34.049Z,15.49
2023-05-16T05:32:02.435Z,15.63
2023-05-16T05:34:30.862Z,15.75
2023-05-16T05:36:59.148Z,15.78
2023-05-16T05:39:27.807Z,15.89
2023-05-16T05:41:56.181Z,15.99
2023-05-16T05:44:25.928Z,16.18
2023-05-16T05:46:54.426Z,16.45
2023-05-16T05:49:23.418Z,16.55
2023-05-16T05:51:52.377Z,16.65
2023-05-16T05:54:21.177Z,16.69
2023-05-16T05:56:49.525Z,16.70
2023-05-16T05:59:18.003Z,16.78
2023-05-16T06:01:47.684Z,16.81
2023-05-16T06:04:15.948Z,16.81
2023-05-16T06:06:44.208Z,16.88
2023-05-16T06:09:12.797Z,16.95
2023-05-16T06:11:41.309Z,17.05
2023-05-16T06:14:09.607Z,17.04
2023-05-16T06:16:39.513Z,17.01
2023-05-16T06:19:09.329Z,17.07
2023-05-16T06:21:38.025Z,17.15
2023-05-16T06:24:06.546Z,17.23
2023-05-16T06:26:35.096Z,17.23
2023-05-16T06:29:03.349Z,17.44
2023-05-16T06:31:32.417Z,17.51
2023-05-16T06:34:00.874Z,17.64
2023-05-16T06:36:31.196Z,17.69
2023-05-16T06:38:59.476Z,17.60
2023-05-16T06:41:27.833Z,17.54
2023-05-16T06:43:56.124Z,17.47
2023-05-16T06:46:24.747Z,17.45
2023-05-16T06:48:53.178Z,17.40
2023-05-16T06:51:21.474Z,17.36
2023-05-16T06:53:51.153Z,17.32
2023-05-16T06:56:19.539Z,17.43
2023-05-16T06:58:49.622Z,17.49
2023-05-16T07:01:18.073Z,17.49
2023-05-16T07:03:46.476Z,17.50
2023-05-16T07:06:14.891Z,17.45
2023-05-16T07:08:43.215Z,17.37
2023-05-16T07:11:12.935Z,17.41
2023-05-16T07:13:41.251Z,17.52
2023-05-16T07:16:09.584Z,17.75
2023-05-16T07:18:38.023Z,18.10
2023-05-16T07:21:06.749Z,18.53
2023-05-16T07:23:35.060Z,19.09
2023-05-16T07:26:03.499Z,19.45
2023-05-16T07:28:33.234Z,19.54
2023-05-16T07:31:01.537Z,19.36
2023-05-16T07:33:29.943Z,18.89
2023-05-16T07:36:11.956Z,18.55
2023-05-16T07:38:44.341Z,18.25
2023-05-16T07:41:12.732Z,18.11
2023-05-16T07:43:42.491Z,18.33
2023-05-16T07:46:11.629Z,18.70
2023-05-16T07:48:39.970Z,19.01
2023-05-16T07:51:08.779Z,19.41
2023-05-16T07:53:37.349Z,19.80
2023-05-16T07:56:06.910Z,20.11
2023-05-16T07:58:35.553Z,20.27
2023-05-16T08:01:05.769Z,20.60
2023-05-16T08:03:34.352Z,20.85
2023-05-16T08:06:02.970Z,20.98
2023-05-16T08:08:31.374Z,20.81
2023-05-16T08:10:59.729Z,20.83
2023-05-16T08:13:28.105Z,20.81
2023-05-16T08:15:56.472Z,21.02
2023-05-16T08:18:26.186Z,21.04
2023-05-16T08:20:54.538Z,20.81
2023-05-16T08:23:23.039Z,20.64
2023-05-16T08:25:51.392Z,20.39
2023-05-16T08:28:19.724Z,20.58
2023-05-16T08:30:48.192Z,20.30
2023-05-16T08:33:16.743Z,20.25
2023-05-16T08:35:46.716Z,19.89
2023-05-16T08:38:15.003Z,19.50
2023-05-16T08:40:45.215Z,19.54
2023-05-16T08:43:14.011Z,19.85
2023-05-16T08:45:42.939Z,20.16
2023-05-16T08:48:12.603Z,20.44
2023-05-16T08:50:42.892Z,20.69
2023-05-16T08:53:15.991Z,20.79
2023-05-16T08:55:47.001Z,21.14
2023-05-16T08:58:15.993Z,21.39
2023-05-16T09:00:44.911Z,21.25
2023-05-16T09:03:13.549Z,20.84
2023-05-16T09:05:42.505Z,20.16
2023-05-16T09:08:12.248Z,19.53
2023-05-16T09:10:40.580Z,19.27
2023-05-16T09:13:08.900Z,19.60
2023-05-16T09:15:37.296Z,20.04
2023-05-16T09:18:05.756Z,20.20
2023-05-16T09:20:34.249Z,20.35
2023-05-16T09:23:03.372Z,20.39
2023-05-16T09:25:33.183Z,20.95
2023-05-16T09:28:03.573Z,21.44
2023-05-16T09:30:34.271Z,21.79
2023-05-16T09:33:03.247Z,22.16
2023-05-16T09:38:04.142Z,21.65
2023-05-16T09:40:34.031Z,20.83
2023-05-16T09:43:07.990Z,20.31
2023-05-16T09:45:38.046Z,20.51
2023-05-16T09:48:08.375Z,20.78
2023-05-16T09:50:38.656Z,21.13
2023-05-16T09:53:07.223Z,21.51
2023-05-16T09:55:36.892Z,21.62
2023-05-16T09:58:06.899Z,21.69
2023-05-16T10:00:35.742Z,21.85
2023-05-16T10:03:05.851Z,22.02
2023-05-16T10:05:35.921Z,22.34
2023-05-16T10:08:05.588Z,22.47
2023-05-16T10:10:39.771Z,22.39
2023-05-16T10:13:09.933Z,22.33
2023-05-16T10:15:39.316Z,22.50
2023-05-16T10:18:13.251Z,22.55
2023-05-16T10:20:43.726Z,22.39
2023-05-16T10:23:17.691Z,22.09
2023-05-16T10:25:48.664Z,22.20
2023-05-16T10:28:17.890Z,22.37
2023-05-16T10:30:47.455Z,22.61
2023-05-16T10:33:19.827Z,22.32
2023-05-16T10:35:48.459Z,22.21
2023-05-16T10:38:19.660Z,22.33
2023-05-16T10:40:50.728Z,22.73
2023-05-16T10:43:26.959Z,23.20
2023-05-16T10:45:59.804Z,23.03
2023-05-16T10:48:32.802Z,22.20
2023-05-16T10:51:02.860Z,21.30
2023-05-16T10:53:32.692Z,20.69
2023-05-16T10:56:11.395Z,20.51
2023-05-16T10:58:48.242Z,20.42
2023-05-16T11:01:18.549Z,19.69
2023-05-16T11:04:07.431Z,18.63
2023-05-16T11:06:37.233Z,18.19
2023-05-16T11:09:19.332Z,18.03
2023-05-16T11:11:55.735Z,18.40
2023-05-16T11:14:25.615Z,19.05
2023-05-16T11:16:56.370Z,19.66
2023-05-16T11:19:33.402Z,20.31
2023-05-16T11:22:25.042Z,20.81
2023-05-16T11:24:57.226Z,21.15
2023-05-16T11:27:29.345Z,21.29
2023-05-16T11:30:03.714Z,21.54
2023-05-16T11:32:35.040Z,21.69
2023-05-16T11:35:04.721Z,21.89
2023-05-16T11:37:33.086Z,22.36
2023-05-16T11:40:02.303Z,22.41
2023-05-16T11:42:35.745Z,22.35
2023-05-16T11:45:08.863Z,22.40
2023-05-16T11:47:39.683Z,22.62
2023-05-16T11:50:10.083Z,22.81
2023-05-16T11:52:41.724Z,22.18
2023-05-16T11:55:11.529Z,21.10
2023-05-16T11:57:42.139Z,20.03
2023-05-16T12:00:17.850Z,19.41
2023-05-16T12:02:47.792Z,19.20
2023-05-16T12:05:17.407Z,19.43
2023-05-16T12:07:46.237Z,20.24
2023-05-16T12:10:15.968Z,20.90
2023-05-16T12:12:48.100Z,20.94
2023-05-16T12:15:17.355Z,20.69
2023-05-16T12:17:47.087Z,20.79
2023-05-16T12:20:16.828Z,21.23
2023-05-16T12:22:46.277Z,21.24
2023-05-16T12:25:26.941Z,20.76
2023-05-16T12:27:59.092Z,20.87
2023-05-16T12:30:29.483Z,21.59
2023-05-16T12:32:58.669Z,21.92
2023-05-16T12:35:27.395Z,21.60
2023-05-16T12:37:56.273Z,21.53
2023-05-16T12:40:25.097Z,21.92
2023-05-16T12:42:54.841Z,22.32
2023-05-16T12:45:25.072Z,22.56
2023-05-16T12:47:53.609Z,22.72
2023-05-16T12:50:23.139Z,22.97
2023-05-16T12:52:52.389Z,23.08
2023-05-16T12:55:21.921Z,22.99
2023-05-16T12:57:51.242Z,22.94
2023-05-16T13:00:21.837Z,23.10
2023-05-16T13:02:52.318Z,23.36
2023-05-16T13:05:23.470Z,23.76
2023-05-16T13:07:52.856Z,23.88
2023-05-16T13:10:21.351Z,23.58
2023-05-16T13:12:49.592Z,23.25
2023-05-16T13:15:18.172Z,22.95
2023-05-16T13:17:47.755Z,22.65
2023-05-16T13:20:17.538Z,22.37
2023-05-16T13:22:46.694Z,22.19
2023-05-16T13:25:15.027Z,22.01
2023-05-16T13:27:43.527Z,22.06
2023-05-16T13:30:12.383Z,22.07
2023-05-16T13:32:40.754Z,21.87
2023-05-16T13:35:09.830Z,21.60
2023-05-16T13:37:39.741Z,21.24
2023-05-16T13:40:10.709Z,21.46
2023-05-16T13:42:39.417Z,21.94
2023-05-16T13:45:08.490Z,22.43
2023-05-16T13:47:37.079Z,22.83
2023-05-16T13:50:10.256Z,23.24
2023-05-16T13:52:41.040Z,23.01
2023-05-16T13:55:09.994Z,23.03
2023-05-16T13:57:38.494Z,23.31
2023-05-16T14:02:44.510Z,23.41
2023-05-16T14:05:12.962Z,23.42
2023-05-16T14:07:44.726Z,23.55
2023-05-16T14:10:14.577Z,23.27
2023-05-16T14:12:42.940Z,22.93
2023-05-16T14:15:11.778Z,22.63
2023-05-16T14:17:40.248Z,22.33
2023-05-16T14:20:10.834Z,22.41
2023-05-16T14:22:39.728Z,22.75
2023-05-16T14:25:10.376Z,22.90
2023-05-16T14:27:38.829Z,22.68
2023-05-16T14:30:09.617Z,22.19
2023-05-16T14:32:38.154Z,21.80
2023-05-16T14:35:07.227Z,21.65
2023-05-16T14:37:35.614Z,21.44
2023-05-16T14:40:05.569Z,21.18
2023-05-16T14:42:35.293Z,20.92
2023-05-16T14:45:03.830Z,20.89
2023-05-16T14:47:32.302Z,20.87
2023-05-16T14:50:01.317Z,20.78
2023-05-16T14:52:29.929Z,20.71
2023-05-16T14:54:58.227Z,20.60
2023-05-16T14:57:26.571Z,20.62
2023-05-16T14:59:56.447Z,20.60
2023-05-16T15:02:24.705Z,20.35
2023-05-16T15:04:55.450Z,20.31
2023-05-16T15:07:23.824Z,20.37
2023-05-16T15:09:52.439Z,20.36
2023-05-16T15:12:20.781Z,20.19
2023-05-16T15:14:49.075Z,20.15
2023-05-16T15:17:18.762Z,20.27
2023-05-16T15:19:47.980Z,20.86
2023-05-16T15:22:16.289Z,21.42
2023-05-16T15:24:44.645Z,21.67
2023-05-16T15:27:13.025Z,21.99
2023-05-16T15:29:41.410Z,22.19
2023-05-16T15:32:11.399Z,22.35
2023-05-16T15:34:41.254Z,22.55
2023-05-16T15:37:09.579Z,22.25
2023-05-16T15:39:38.287Z,21.76
2023-05-16T15:42:11.078Z,21.40
2023-05-16T15:44:40.166Z,21.25
2023-05-16T15:47:08.916Z,21.06
2023-05-16T15:49:37.908Z,21.16
2023-05-16T15:52:08.214Z,21.25
2023-05-16T15:54:37.980Z,21.16
2023-05-16T15:57:07.037Z,20.93
2023-05-16T15:59:35.857Z,20.80
2023-05-16T16:02:05.603Z,20.62
2023-05-16T16:04:34.119Z,20.48
2023-05-16T16:07:02.486Z,20.36
2023-05-16T16:09:32.503Z,20.43
2023-05-16T16:12:01.265Z,20.43
2023-05-16T16:14:30.219Z,20.39
2023-05-16T16:16:58.591Z,20.41
2023-05-16T16:19:27.052Z,20.49
2023-05-16T16:21:55.518Z,20.44
2023-05-16T16:24:23.842Z,20.28
2023-05-16T16:26:53.710Z,20.44
2023-05-16T16:29:22.071Z,20.61
2023-05-16T16:31:50.673Z,20.59
2023-05-16T16:34:20.343Z,20.54
2023-05-16T16:36:50.733Z,20.59
2023-05-16T16:39:19.128Z,20.61
2023-05-16T16:41:47.453Z,20.55
2023-05-16T16:44:17.172Z,20.46
2023-05-16T16:46:45.813Z,20.31
2023-05-16T16:49:14.183Z,20.22
2023-05-16T16:51:42.788Z,19.99
2023-05-16T16:54:11.194Z,20.14
2023-05-16T16:56:39.518Z,20.41
2023-05-16T16:59:07.906Z,20.36
2023-05-16T17:01:37.693Z,20.28
2023-05-16T17:04:06.413Z,20.07
2023-05-16T17:06:35.094Z,19.95
2023-05-16T17:09:06.510Z,19.73
2023-05-16T17:11:36.416Z,19.57
2023-05-16T17:14:06.340Z,19.47
2023-05-16T17:16:35.262Z,19.37
2023-05-16T17:19:05.542Z,19.25
2023-05-16T17:21:34.774Z,19.14
2023-05-16T17:24:03.695Z,19.09
2023-05-16T17:26:32.113Z,19.01
2023-05-16T17:29:01.292Z,18.89
2023-05-16T17:31:29.711Z,18.81
2023-05-16T17:33:58.083Z,18.72
2023-05-16T17:36:27.847Z,18.58
2023-05-16T17:38:56.315Z,18.56
2023-05-16T17:41:24.727Z,18.63
2023-05-16T17:43:53.565Z,18.61
2023-05-16T17:46:21.908Z,18.61
2023-05-16T17:48:50.362Z,18.71
2023-05-16T17:51:21.398Z,18.74
2023-05-16T17:53:51.711Z,18.79
2023-05-16T17:56:20.180Z,18.78
2023-05-16T17:58:48.481Z,18.89
2023-05-16T18:01:17.340Z,18.89
2023-05-16T18:03:45.813Z,18.91
2023-05-16T18:06:14.256Z,18.85
2023-05-16T18:08:42.681Z,18.87
2023-05-16T18:11:12.442Z,18.70
2023-05-16T18:13:40.848Z,18.70
2023-05-16T18:16:12.931Z,18.73
2023-05-16T18:18:41.722Z,18.70
2023-05-16T18:21:10.216Z,18.78
2023-05-16T18:23:38.582Z,18.76
2023-05-16T18:26:06.897Z,18.79
2023-05-16T18:28:36.649Z,18.79
2023-05-16T18:31:05.159Z,18.72
2023-05-16T18:33:33.449Z,18.80
2023-05-16T18:36:01.735Z,18.81
2023-05-16T18:38:33.126Z,18.74
2023-05-16T18:41:02.460Z,18.70
2023-05-16T18:43:31.043Z,18.71
2023-05-16T18:46:00.751Z,18.70
2023-05-16T18:48:29.310Z,18.70
2023-05-16T18:50:57.723Z,18.66
2023-05-16T18:53:26.237Z,18.62
2023-05-16T18:55:54.686Z,18.67
2023-05-16T18:58:23.089Z,18.64
2023-05-16T19:00:51.713Z,18.56
2023-05-16T19:03:21.913Z,18.47
2023-05-16T19:05:50.589Z,18.51
2023-05-16T19:08:19.052Z,18.56
2023-05-16T19:10:47.454Z,18.64
2023-05-16T19:13:15.837Z,18.63
2023-05-16T19:15:44.528Z,18.58
2023-05-16T19:18:13.245Z,18.64
2023-05-16T19:20:44.975Z,18.62
2023-05-16T19:23:14.164Z,18.59
2023-05-16T19:25:47.377Z,18.52
2023-05-16T19:28:16.540Z,18.42
2023-05-16T19:30:45.080Z,18.37
2023-05-16T19:33:13.476Z,18.41
2023-05-16T19:35:43.297Z,18.50
2023-05-16T19:38:11.592Z,18.53
2023-05-16T19:40:39.954Z,18.43
2023-05-16T19:43:08.280Z,18.41
2023-05-16T19:45:36.666Z,18.41
2023-05-16T19:48:05.448Z,18.50
2023-05-16T19:50:33.919Z,18.53
2023-05-16T19:53:04.180Z,18.46
2023-05-16T19:55:33.996Z,18.44
2023-05-16T19:58:03.485Z,18.42
2023-05-16T20:00:31.852Z,18.41
2023-05-16T20:03:00.364Z,18.43
2023-05-16T20:05:29.076Z,18.38
2023-05-16T20:07:58.189Z,18.32
2023-05-16T20:10:27.914Z,18.34
2023-05-16T20:12:56.203Z,18.30
2023-05-16T20:15:24.942Z,18.29
2023-05-16T20:17:53.410Z,18.32
2023-05-16T20:20:22.065Z,18.28
2023-05-16T20:22:50.345Z,18.24
2023-05-16T20:25:18.721Z,18.22
2023-05-16T20:27:48.511Z,18.24
2023-05-16T20:30:16.850Z,18.25
2023-05-16T20:32:45.257Z,18.24
2023-05-16T20:35:14.897Z,18.25
2023-05-16T20:37:43.268Z,18.26
2023-05-16T20:40:12.112Z,18.12
2023-05-16T20:42:40.630Z,17.98
2023-05-16T20:45:11.564Z,18.02
2023-05-16T20:47:40.028Z,18.00
2023-05-16T20:50:09.493Z,17.93
2023-05-16T20:52:37.779Z,17.94
2023-05-16T20:55:06.904Z,17.90
2023-05-16T20:57:35.308Z,17.85
2023-05-16T21:00:04.652Z,17.93
2023-05-16T21:02:34.725Z,18.03
2023-05-16T21:05:19.655Z,18.10
2023-05-16T21:07:54.016Z,17.91
2023-05-16T21:10:22.834Z,17.92
2023-05-16T21:12:51.594Z,17.95
2023-05-16T21:15:23.204Z,17.98
2023-05-16T21:17:53.748Z,17.94
2023-05-16T21:20:22.073Z,17.94
2023-05-16T21:22:50.492Z,17.90
2023-05-16T21:25:19.334Z,17.94
2023-05-16T21:27:47.640Z,17.97
2023-05-16T21:30:16.335Z,18.04
2023-05-16T21:32:44.683Z,18.06
2023-05-16T21:35:14.423Z,18.04
2023-05-16T21:37:42.743Z,17.93
2023-05-16T21:40:14.768Z,17.96
2023-05-16T21:42:43.066Z,17.94
2023-05-16T21:45:15.870Z,17.89
2023-05-16T21:47:44.293Z,17.91
2023-05-16T21:50:14.336Z,17.99
2023-05-16T21:52:42.900Z,18.02
2023-05-16T21:55:11.696Z,18.00
2023-05-16T21:57:40.053Z,18.08
2023-05-16T22:00:09.987Z,18.12
2023-05-16T22:02:38.746Z,18.07
2023-05-16T22:05:08.130Z,18.12
2023-05-16T22:07:38.314Z,18.11
2023-05-16T22:10:07.908Z,18.10
2023-05-16T22:12:36.238Z,18.08
2023-05-16T22:15:04.995Z,17.97
2023-05-16T22:17:33.321Z,17.92
2023-05-16T22:20:02.621Z,17.88
2023-05-16T22:22:31.040Z,17.88
2023-05-16T22:25:01.251Z,17.95
2023-05-16T22:27:29.580Z,17.95
2023-05-16T22:29:57.927Z,17.99
2023-05-16T22:32:26.345Z,17.95
2023-05-16T22:34:54.624Z,17.95
2023-05-16T22:37:22.682Z,17.95
2023-05-16T22:39:51.383Z,17.93
2023-05-16T22:42:20.844Z,17.87
2023-05-16T22:44:48.885Z,17.84
2023-05-16T22:47:16.944Z,17.90
2023-05-16T22:49:45.040Z,17.97
2023-05-16T22:52:13.076Z,17.94
2023-05-16T22:54:42.103Z,17.92
2023-05-16T22:57:10.190Z,17.84
2023-05-16T22:59:39.681Z,17.76
2023-05-16T23:02:07.758Z,17.70
2023-05-16T23:04:35.862Z,17.63
2023-05-16T23:07:03.984Z,17.50
2023-05-16T23:09:32.080Z,17.41
2023-05-16T23:12:00.277Z,17.26
2023-05-16T23:14:28.448Z,17.21
2023-05-16T23:16:57.898Z,17.11
2023-05-16T23:19:26.231Z,17.03
2023-05-16T23:21:54.351Z,16.99
2023-05-16T23:24:22.717Z,16.99
2023-05-16T23:26:50.853Z,16.94
2023-05-16T23:29:18.945Z,16.92
2023-05-16T23:31:47.419Z,16.86
2023-05-16T23:34:16.843Z,16.75
2023-05-16T23:36:44.956Z,16.65
2023-05-16T23:39:13.086Z,16.58
2023-05-16T23:41:41.167Z,16.52
2023-05-16T23:44:09.209Z,16.36
2023-05-16T23:46:37.258Z,16.29
2023-05-16T23:49:05.343Z,16.25
2023-05-16T23:51:45.319Z,16.15
2023-05-16T23:54:22.811Z,16.03
2023-05-16T23:56:51.093Z,16.00
2023-05-16T23:59:19.957Z,15.97
